sensor_id;sensor_type;location;lat;lon;timestamp;temperature;humidity
364;DHT22;173;48.718;9.274;2023-06-14T12:31:27;25.60;34.00
364;DHT22;173;48.718;9.274;2023-06-14T12:34:01;33.70;31.40
364;DHT22;173;48.718;9.274;2023-06-14T12:36:33;33.80;30.60
364;DHT22;173;48.718;9.274;2023-06-14T12:39:07;32.90;30.80
364;DHT22;173;48.718;9.274;2023-06-14T12:41:39;31.20;30.60
364;DHT22;173;48.718;9.274;2023-06-14T12:44:12;29.80;34.10
364;DHT22;173;48.718;9.274;2023-06-14T12:46:44;30.70;34.50
364;DHT22;173;48.718;9.274;2023-06-14T12:49:18;32.10;32.40
364;DHT22;173;48.718;9.274;2023-06-14T12:51:50;33.00;32.30
364;DHT22;173;48.718;9.274;2023-06-14T12:54:22;33.60;30.90
364;DHT22;173;48.718;9.274;2023-06-14T12:56:54;33.90;30.30
364;DHT22;173;48.718;9.274;2023-06-14T12:59:26;33.50;30.20
364;DHT22;173;48.718;9.274;2023-06-14T13:02:17;33.40;30.50
364;DHT22;173;48.718;9.274;2023-06-14T13:04:53;32.70;29.60
364;DHT22;173;48.718;9.274;2023-06-14T13:07:26;32.90;31.50
364;DHT22;173;48.718;9.274;2023-06-14T13:09:58;33.50;31.40
364;DHT22;173;48.718;9.274;2023-06-14T13:12:30;33.90;29.90
364;DHT22;173;48.718;9.274;2023-06-14T13:15:02;33.70;29.90
364;DHT22;173;48.718;9.274;2023-06-14T13:17:36;33.20;29.80
364;DHT22;173;48.718;9.274;2023-06-14T13:20:10;32.40;31.30
364;DHT22;173;48.718;9.274;2023-06-14T13:22:42;32.00;32.10
364;DHT22;173;48.718;9.274;2023-06-14T13:25:14;31.40;31.70
364;DHT22;173;48.718;9.274;2023-06-14T13:27:46;30.80;32.00
364;DHT22;173;48.718;9.274;2023-06-14T13:30:18;31.60;33.00
364;DHT22;173;48.718;9.274;2023-06-14T13:32:50;32.90;31.30
364;DHT22;173;48.718;9.274;2023-06-14T13:35:24;33.70;31.10
364;DHT22;173;48.718;9.274;2023-06-14T13:37:56;34.00;31.30
364;DHT22;173;48.718;9.274;2023-06-14T13:43:31;31.80;31.10
364;DHT22;173;48.718;9.274;2023-06-14T13:46:03;30.90;32.70
364;DHT22;173;48.718;9.274;2023-06-14T13:48:35;30.60;33.90
364;DHT22;173;48.718;9.274;2023-06-14T13:51:07;30.40;34.10
364;DHT22;173;48.718;9.274;2023-06-14T13:53:39;30.00;34.30
364;DHT22;173;48.718;9.274;2023-06-14T13:56:11;29.80;35.20
364;DHT22;173;48.718;9.274;2023-06-14T13:58:43;30.80;35.60
364;DHT22;173;48.718;9.274;2023-06-14T14:02:10;32.30;33.20
364;DHT22;173;48.718;9.274;2023-06-14T14:04:43;34.00;31.30
364;DHT22;173;48.718;9.274;2023-06-14T14:07:16;34.10;30.40
364;DHT22;173;48.718;9.274;2023-06-14T14:09:49;34.40;30.30
364;DHT22;173;48.718;9.274;2023-06-14T14:12:22;34.10;29.30
364;DHT22;173;48.718;9.274;2023-06-14T14:14:55;32.90;31.00
364;DHT22;173;48.718;9.274;2023-06-14T14:17:27;32.10;32.80
364;DHT22;173;48.718;9.274;2023-06-14T14:20:00;32.60;32.30
364;DHT22;173;48.718;9.274;2023-06-14T14:22:33;33.40;32.10
364;DHT22;173;48.718;9.274;2023-06-14T14:25:05;34.10;30.40
364;DHT22;173;48.718;9.274;2023-06-14T14:27:38;34.40;29.70
364;DHT22;173;48.718;9.274;2023-06-14T14:30:10;34.40;30.10
364;DHT22;173;48.718;9.274;2023-06-14T14:32:53;34.20;31.20
364;DHT22;173;48.718;9.274;2023-06-14T14:35:25;34.60;30.20
364;DHT22;173;48.718;9.274;2023-06-14T14:37:58;34.50;30.20
364;DHT22;173;48.718;9.274;2023-06-14T14:40:32;34.70;30.00
364;DHT22;173;48.718;9.274;2023-06-14T14:43:04;34.80;29.60
364;DHT22;173;48.718;9.274;2023-06-14T14:45:37;35.30;28.90
364;DHT22;173;48.718;9.274;2023-06-14T14:48:09;36.00;28.90
364;DHT22;173;48.718;9.274;2023-06-14T14:50:41;35.80;27.60
364;DHT22;173;48.718;9.274;2023-06-14T14:53:13;35.60;29.70
364;DHT22;173;48.718;9.274;2023-06-14T14:55:45;35.80;28.80
364;DHT22;173;48.718;9.274;2023-06-14T14:58:17;35.40;27.90
364;DHT22;173;48.718;9.274;2023-06-14T15:00:49;34.30;28.80
364;DHT22;173;48.718;9.274;2023-06-14T15:03:21;34.60;29.00
364;DHT22;173;48.718;9.274;2023-06-14T15:05:53;34.70;28.70
364;DHT22;173;48.718;9.274;2023-06-14T15:08:25;33.60;28.60
364;DHT22;173;48.718;9.274;2023-06-14T15:10:57;34.00;29.70
364;DHT22;173;48.718;9.274;2023-06-14T15:13:30;35.50;28.50
364;DHT22;173;48.718;9.274;2023-06-14T15:16:03;35.40;28.90
364;DHT22;173;48.718;9.274;2023-06-14T15:18:35;35.70;28.60
364;DHT22;173;48.718;9.274;2023-06-14T15:21:07;35.20;28.60
364;DHT22;173;48.718;9.274;2023-06-14T15:23:38;34.80;29.30
364;DHT22;173;48.718;9.274;2023-06-14T15:26:10;34.50;30.20
364;DHT22;173;48.718;9.274;2023-06-14T15:28:42;34.80;30.00
364;DHT22;173;48.718;9.274;2023-06-14T15:31:14;33.00;31.00
364;DHT22;173;48.718;9.274;2023-06-14T15:33:46;31.60;32.90
364;DHT22;173;48.718;9.274;2023-06-14T15:36:18;30.70;34.20
364;DHT22;173;48.718;9.274;2023-06-14T15:38:50;29.60;35.30
364;DHT22;173;48.718;9.274;2023-06-14T15:41:22;29.10;35.30
364;DHT22;173;48.718;9.274;2023-06-14T15:43:55;28.70;35.80
364;DHT22;173;48.718;9.274;2023-06-14T15:46:27;28.90;36.30
364;DHT22;173;48.718;9.274;2023-06-14T15:48:59;30.10;35.70
364;DHT22;173;48.718;9.274;2023-06-14T15:51:31;31.60;33.50
364;DHT22;173;48.718;9.274;2023-06-14T15:54:03;32.20;31.70
364;DHT22;173;48.718;9.274;2023-06-14T15:56:35;33.00;31.20
364;DHT22;173;48.718;9.274;2023-06-14T15:59:07;33.50;31.00
364;DHT22;173;48.718;9.274;2023-06-14T16:01:39;33.10;30.10
364;DHT22;173;48.718;9.274;2023-06-14T16:04:11;33.10;30.00
364;DHT22;173;48.718;9.274;2023-06-14T16:06:43;33.20;29.80
364;DHT22;173;48.718;9.274;2023-06-14T16:09:15;33.40;30.10
364;DHT22;173;48.718;9.274;2023-06-14T16:11:47;33.70;31.10
364;DHT22;173;48.718;9.274;2023-06-14T16:14:19;34.00;30.60
364;DHT22;173;48.718;9.274;2023-06-14T16:16:51;33.70;30.90
364;DHT22;173;48.718;9.274;2023-06-14T16:19:23;33.70;30.90
364;DHT22;173;48.718;9.274;2023-06-14T16:21:55;33.80;29.90
364;DHT22;173;48.718;9.274;2023-06-14T16:24:27;33.40;30.70
364;DHT22;173;48.718;9.274;2023-06-14T16:33:47;33.10;30.10
364;DHT22;173;48.718;9.274;2023-06-14T16:36:26;32.50;30.80
364;DHT22;173;48.718;9.274;2023-06-14T16:38:58;32.80;30.50
364;DHT22;173;48.718;9.274;2023-06-14T16:41:31;33.10;31.00
364;DHT22;173;48.718;9.274;2023-06-14T16:44:02;33.30;31.10
364;DHT22;173;48.718;9.274;2023-06-14T16:46:36;33.20;30.30
364;DHT22;173;48.718;9.274;2023-06-14T16:49:07;31.90;30.40
364;DHT22;173;48.718;9.274;2023-06-14T16:51:39;31.70;32.10
364;DHT22;173;48.718;9.274;2023-06-14T16:54:11;32.00;31.90
364;DHT22;173;48.718;9.274;2023-06-14T16:56:43;32.20;32.30
364;DHT22;173;48.718;9.274;2023-06-14T16:59:16;32.80;31.30
364;DHT22;173;48.718;9.274;2023-06-14T17:01:50;33.00;30.40
364;DHT22;173;48.718;9.274;2023-06-14T17:04:22;32.90;30.70
364;DHT22;173;48.718;9.274;2023-06-14T17:06:54;32.80;31.10
364;DHT22;173;48.718;9.274;2023-06-14T17:09:28;32.50;32.00
364;DHT22;173;48.718;9.274;2023-06-14T17:12:00;31.30;31.60
364;DHT22;173;48.718;9.274;2023-06-14T17:14:33;30.20;34.20
364;DHT22;173;48.718;9.274;2023-06-14T17:17:08;29.60;34.80
364;DHT22;173;48.718;9.274;2023-06-14T17:19:40;29.60;35.90
364;DHT22;173;48.718;9.274;2023-06-14T17:22:12;29.40;35.40
364;DHT22;173;48.718;9.274;2023-06-14T17:24:44;29.30;36.70
364;DHT22;173;48.718;9.274;2023-06-14T17:27:16;29.20;37.00
364;DHT22;173;48.718;9.274;2023-06-14T17:29:48;29.10;37.20
364;DHT22;173;48.718;9.274;2023-06-14T17:32:20;29.00;36.90
364;DHT22;173;48.718;9.274;2023-06-14T17:34:52;28.70;36.80
364;DHT22;173;48.718;9.274;2023-06-14T17:38:46;28.50;37.80
364;DHT22;173;48.718;9.274;2023-06-14T17:42:10;28.10;37.90
